DEPWI EDAH-EDDB
Flight info
| Callsign | DEPWI |
|---|---|
| Flight time | 0h 55m |
| Altitude | 3000 |
| Route | VFR |
| Aircraft | DA40/L-SDE3FGHIRWY/LB1 |
Departure
| Time | 2026-05-05 16:31 |
|---|---|
| Airport | Heringsdorf Airport (EDAH) |
Arrival
| Time | 2026-05-05 17:27 |
|---|---|
| Airport | Berlin Brandenburg Airport (EDDB) |
| Time | Latitude | Longitude | Altitude | Speed | Heading |
|---|---|---|---|---|---|
| 2026-05-05 16:22 | 53.87752 | 14.14440 | 73 ft | 0 kts | 185° |
| 2026-05-05 16:27 | 53.87748 | 14.14439 | 73 ft | 3 kts | 200° |
| 2026-05-05 16:27 | 53.87741 | 14.14418 | 71 ft | 0 kts | 56° |
| 2026-05-05 16:27 | 53.87756 | 14.14432 | 71 ft | 5 kts | 354° |
| 2026-05-05 16:28 | 53.87806 | 14.14367 | 73 ft | 15 kts | 300° |
| 2026-05-05 16:28 | 53.87843 | 14.14233 | 69 ft | 11 kts | 299° |
| 2026-05-05 16:28 | 53.87899 | 14.14067 | 71 ft | 20 kts | 299° |
| 2026-05-05 16:28 | 53.87960 | 14.13892 | 72 ft | 15 kts | 329° |
| 2026-05-05 16:29 | 53.87996 | 14.13887 | 69 ft | 1 kts | 4° |
| 2026-05-05 16:29 | 53.88035 | 14.13886 | 74 ft | 11 kts | 355° |
| 2026-05-05 16:29 | 53.88092 | 14.13956 | 74 ft | 14 kts | 115° |
| 2026-05-05 16:29 | 53.88086 | 14.13976 | 70 ft | 0 kts | 116° |
| 2026-05-05 16:30 | 53.88063 | 14.14080 | 73 ft | 24 kts | 104° |
| 2026-05-05 16:30 | 53.87939 | 14.14681 | 110 ft | 74 kts | 103° |
| 2026-05-05 16:30 | 53.87726 | 14.15624 | 277 ft | 93 kts | 106° |
| 2026-05-05 16:31 | 53.87480 | 14.16722 | 428 ft | 107 kts | 107° |
| 2026-05-05 16:31 | 53.87259 | 14.17985 | 518 ft | 115 kts | 98° |
| 2026-05-05 16:31 | 53.87084 | 14.19316 | 634 ft | 116 kts | 98° |
| 2026-05-05 16:31 | 53.86915 | 14.20670 | 767 ft | 119 kts | 98° |
| 2026-05-05 16:32 | 53.86730 | 14.22053 | 900 ft | 121 kts | 97° |
| 2026-05-05 16:32 | 53.86561 | 14.23430 | 1033 ft | 119 kts | 97° |
| 2026-05-05 16:32 | 53.86401 | 14.24705 | 1161 ft | 105 kts | 97° |
| 2026-05-05 16:32 | 53.86162 | 14.25812 | 1281 ft | 104 kts | 130° |
| 2026-05-05 16:33 | 53.85463 | 14.26020 | 1383 ft | 110 kts | 191° |
| 2026-05-05 16:33 | 53.84725 | 14.25753 | 1502 ft | 105 kts | 187° |
| 2026-05-05 16:33 | 53.84015 | 14.25534 | 1628 ft | 103 kts | 187° |
| 2026-05-05 16:33 | 53.83306 | 14.25293 | 1753 ft | 105 kts | 187° |
| 2026-05-05 16:34 | 53.82583 | 14.25047 | 1875 ft | 105 kts | 188° |
| 2026-05-05 16:34 | 53.81870 | 14.24807 | 2009 ft | 104 kts | 188° |
| 2026-05-05 16:34 | 53.81166 | 14.24575 | 2134 ft | 102 kts | 187° |
| 2026-05-05 16:34 | 53.80477 | 14.24334 | 2262 ft | 101 kts | 187° |
| 2026-05-05 16:35 | 53.79794 | 14.24075 | 2384 ft | 100 kts | 187° |
| 2026-05-05 16:35 | 53.79114 | 14.23824 | 2508 ft | 99 kts | 187° |
| 2026-05-05 16:35 | 53.78445 | 14.23591 | 2646 ft | 98 kts | 187° |
| 2026-05-05 16:35 | 53.77766 | 14.23372 | 2773 ft | 99 kts | 187° |
| 2026-05-05 16:36 | 53.77087 | 14.23154 | 2893 ft | 101 kts | 188° |
| 2026-05-05 16:36 | 53.76375 | 14.22910 | 2905 ft | 110 kts | 187° |
| 2026-05-05 16:36 | 53.75602 | 14.22662 | 2910 ft | 116 kts | 187° |
| 2026-05-05 16:36 | 53.74795 | 14.22432 | 2910 ft | 118 kts | 187° |
| 2026-05-05 16:37 | 53.73980 | 14.22197 | 2910 ft | 119 kts | 187° |
| 2026-05-05 16:37 | 53.73159 | 14.21963 | 2909 ft | 120 kts | 187° |
| 2026-05-05 16:37 | 53.72342 | 14.21712 | 2908 ft | 119 kts | 196° |
| 2026-05-05 16:37 | 53.71653 | 14.20945 | 2927 ft | 119 kts | 217° |
| 2026-05-05 16:38 | 53.70961 | 14.20119 | 2908 ft | 121 kts | 213° |
| 2026-05-05 16:38 | 53.70268 | 14.19311 | 2906 ft | 121 kts | 213° |
| 2026-05-05 16:38 | 53.69578 | 14.18489 | 2906 ft | 122 kts | 213° |
| 2026-05-05 16:38 | 53.68880 | 14.17645 | 2917 ft | 123 kts | 213° |
| 2026-05-05 16:39 | 53.68213 | 14.16844 | 3044 ft | 114 kts | 213° |
| 2026-05-05 16:39 | 53.67579 | 14.16084 | 3165 ft | 110 kts | 213° |
| 2026-05-05 16:39 | 53.66960 | 14.15339 | 3280 ft | 109 kts | 213° |
| 2026-05-05 16:39 | 53.66346 | 14.14604 | 3388 ft | 109 kts | 213° |
| 2026-05-05 16:40 | 53.65694 | 14.13846 | 3400 ft | 117 kts | 211° |
| 2026-05-05 16:40 | 53.64992 | 14.13118 | 3406 ft | 120 kts | 213° |
| 2026-05-05 16:40 | 53.64301 | 14.12340 | 3405 ft | 121 kts | 213° |
| 2026-05-05 16:40 | 53.63597 | 14.11553 | 3405 ft | 122 kts | 214° |
| 2026-05-05 16:41 | 53.62889 | 14.10755 | 3403 ft | 122 kts | 213° |
| 2026-05-05 16:41 | 53.62180 | 14.09962 | 3403 ft | 122 kts | 213° |
| 2026-05-05 16:41 | 53.61474 | 14.09171 | 3404 ft | 122 kts | 213° |
| 2026-05-05 16:41 | 53.60759 | 14.08379 | 3401 ft | 123 kts | 213° |
| 2026-05-05 16:42 | 53.60044 | 14.07587 | 3401 ft | 123 kts | 213° |
| 2026-05-05 16:42 | 53.59329 | 14.06788 | 3402 ft | 124 kts | 213° |
| 2026-05-05 16:42 | 53.58606 | 14.05983 | 3401 ft | 125 kts | 213° |
| 2026-05-05 16:42 | 53.57891 | 14.05184 | 3400 ft | 125 kts | 213° |
| 2026-05-05 16:43 | 53.57166 | 14.04376 | 3400 ft | 125 kts | 213° |
| 2026-05-05 16:43 | 53.56448 | 14.03573 | 3400 ft | 124 kts | 213° |
| 2026-05-05 16:43 | 53.55723 | 14.02765 | 3401 ft | 126 kts | 213° |
| 2026-05-05 16:43 | 53.54988 | 14.01949 | 3400 ft | 126 kts | 213° |
| 2026-05-05 16:44 | 53.54244 | 14.01126 | 3349 ft | 131 kts | 213° |
| 2026-05-05 16:44 | 53.53475 | 14.00271 | 3257 ft | 133 kts | 214° |
| 2026-05-05 16:44 | 53.52695 | 13.99402 | 3168 ft | 136 kts | 214° |
| 2026-05-05 16:44 | 53.51904 | 13.98523 | 3061 ft | 136 kts | 213° |
| 2026-05-05 16:45 | 53.51114 | 13.97624 | 2955 ft | 138 kts | 213° |
| 2026-05-05 16:45 | 53.50324 | 13.96702 | 2903 ft | 137 kts | 213° |
| 2026-05-05 16:45 | 53.49553 | 13.95800 | 2897 ft | 133 kts | 213° |
| 2026-05-05 16:45 | 53.48806 | 13.94915 | 2895 ft | 130 kts | 213° |
| 2026-05-05 16:46 | 53.48064 | 13.94053 | 2890 ft | 128 kts | 213° |
| 2026-05-05 16:46 | 53.47341 | 13.93205 | 2891 ft | 127 kts | 213° |
| 2026-05-05 16:46 | 53.46618 | 13.92376 | 2894 ft | 128 kts | 213° |
| 2026-05-05 16:46 | 53.45877 | 13.91501 | 2892 ft | 131 kts | 213° |
| 2026-05-05 16:47 | 53.45123 | 13.90626 | 2897 ft | 133 kts | 213° |
| 2026-05-05 16:47 | 53.44361 | 13.89735 | 2897 ft | 132 kts | 214° |
| 2026-05-05 16:47 | 53.43601 | 13.88870 | 2900 ft | 132 kts | 214° |
| 2026-05-05 16:47 | 53.42841 | 13.88025 | 2898 ft | 130 kts | 213° |
| 2026-05-05 16:48 | 53.42090 | 13.87208 | 2903 ft | 128 kts | 214° |
| 2026-05-05 16:48 | 53.41345 | 13.86403 | 2896 ft | 128 kts | 213° |
| 2026-05-05 16:48 | 53.40601 | 13.85592 | 2896 ft | 127 kts | 213° |
| 2026-05-05 16:48 | 53.40110 | 13.85055 | 2894 ft | 127 kts | 213° |
| 2026-05-05 16:49 | 53.39362 | 13.84237 | 2894 ft | 128 kts | 213° |
| 2026-05-05 16:49 | 53.38373 | 13.83162 | 2897 ft | 128 kts | 213° |
| 2026-05-05 16:49 | 53.37629 | 13.82343 | 2897 ft | 129 kts | 214° |
| 2026-05-05 16:49 | 53.36878 | 13.81518 | 2896 ft | 129 kts | 213° |
| 2026-05-05 16:50 | 53.36132 | 13.80700 | 2896 ft | 128 kts | 213° |
| 2026-05-05 16:50 | 53.35634 | 13.80153 | 2897 ft | 126 kts | 213° |
| 2026-05-05 16:50 | 53.34914 | 13.79354 | 2898 ft | 126 kts | 213° |
| 2026-05-05 16:50 | 53.34180 | 13.78542 | 2888 ft | 125 kts | 213° |
| 2026-05-05 16:51 | 53.33456 | 13.77745 | 2887 ft | 125 kts | 213° |
| 2026-05-05 16:51 | 53.32732 | 13.76956 | 2886 ft | 124 kts | 213° |
| 2026-05-05 16:51 | 53.32009 | 13.76165 | 2885 ft | 124 kts | 213° |
| 2026-05-05 16:51 | 53.31289 | 13.75381 | 2882 ft | 124 kts | 213° |
| 2026-05-05 16:52 | 53.30565 | 13.74596 | 2886 ft | 124 kts | 214° |
| 2026-05-05 16:52 | 53.29839 | 13.73804 | 2889 ft | 124 kts | 213° |
| 2026-05-05 16:52 | 53.29120 | 13.73009 | 2887 ft | 123 kts | 213° |
| 2026-05-05 16:52 | 53.28397 | 13.72215 | 2879 ft | 125 kts | 213° |
| 2026-05-05 16:53 | 53.27667 | 13.71413 | 2879 ft | 126 kts | 213° |
| 2026-05-05 16:53 | 53.26953 | 13.70628 | 2888 ft | 124 kts | 213° |
| 2026-05-05 16:53 | 53.26227 | 13.69823 | 2890 ft | 125 kts | 213° |
| 2026-05-05 16:53 | 53.25502 | 13.69028 | 2890 ft | 124 kts | 213° |
| 2026-05-05 16:54 | 53.24778 | 13.68240 | 2888 ft | 125 kts | 213° |
| 2026-05-05 16:54 | 53.24053 | 13.67438 | 2893 ft | 125 kts | 214° |
| 2026-05-05 16:54 | 53.23328 | 13.66638 | 2894 ft | 125 kts | 214° |
| 2026-05-05 16:54 | 53.22601 | 13.65836 | 2888 ft | 126 kts | 213° |
| 2026-05-05 16:55 | 53.21870 | 13.65031 | 2885 ft | 126 kts | 213° |
| 2026-05-05 16:55 | 53.21136 | 13.64226 | 2885 ft | 126 kts | 215° |
| 2026-05-05 16:55 | 53.20398 | 13.63455 | 2889 ft | 125 kts | 213° |
| 2026-05-05 16:55 | 53.19658 | 13.62701 | 2887 ft | 124 kts | 213° |
| 2026-05-05 16:56 | 53.18931 | 13.61956 | 2896 ft | 125 kts | 213° |
| 2026-05-05 16:56 | 53.18180 | 13.61218 | 2890 ft | 126 kts | 202° |
| 2026-05-05 16:56 | 53.17316 | 13.61076 | 2889 ft | 126 kts | 177° |
| 2026-05-05 16:56 | 53.16445 | 13.61163 | 2881 ft | 125 kts | 180° |
| 2026-05-05 16:57 | 53.15574 | 13.61138 | 2875 ft | 125 kts | 180° |
| 2026-05-05 16:57 | 53.14707 | 13.61126 | 2877 ft | 125 kts | 180° |
| 2026-05-05 16:57 | 53.13837 | 13.61104 | 2877 ft | 125 kts | 180° |
| 2026-05-05 16:57 | 53.12972 | 13.61082 | 2874 ft | 124 kts | 180° |
| 2026-05-05 16:58 | 53.12106 | 13.61051 | 2876 ft | 124 kts | 180° |
| 2026-05-05 16:58 | 53.11241 | 13.61032 | 2876 ft | 123 kts | 180° |
| 2026-05-05 16:58 | 53.10382 | 13.61010 | 2880 ft | 124 kts | 180° |
| 2026-05-05 16:58 | 53.09515 | 13.60987 | 2881 ft | 125 kts | 180° |
| 2026-05-05 16:59 | 53.08636 | 13.60960 | 2883 ft | 127 kts | 180° |
| 2026-05-05 16:59 | 53.07749 | 13.60936 | 2892 ft | 129 kts | 180° |
| 2026-05-05 16:59 | 53.06852 | 13.60916 | 2894 ft | 129 kts | 180° |
| 2026-05-05 16:59 | 53.05947 | 13.60895 | 2888 ft | 130 kts | 181° |
| 2026-05-05 17:00 | 53.05041 | 13.60888 | 2884 ft | 130 kts | 180° |
| 2026-05-05 17:00 | 53.04149 | 13.60869 | 2884 ft | 130 kts | 180° |
| 2026-05-05 17:00 | 53.03255 | 13.60861 | 2883 ft | 127 kts | 180° |
| 2026-05-05 17:00 | 53.02385 | 13.60856 | 2876 ft | 124 kts | 180° |
| 2026-05-05 17:01 | 53.01532 | 13.60848 | 2871 ft | 122 kts | 179° |
| 2026-05-05 17:01 | 53.00678 | 13.60834 | 2865 ft | 122 kts | 180° |
| 2026-05-05 17:01 | 52.99832 | 13.60822 | 2870 ft | 122 kts | 180° |
| 2026-05-05 17:01 | 52.98992 | 13.60805 | 2934 ft | 116 kts | 180° |
| 2026-05-05 17:02 | 52.98205 | 13.60798 | 3037 ft | 112 kts | 180° |
| 2026-05-05 17:02 | 52.97410 | 13.60796 | 3036 ft | 117 kts | 180° |
| 2026-05-05 17:02 | 52.96586 | 13.60795 | 3038 ft | 120 kts | 180° |
| 2026-05-05 17:02 | 52.95759 | 13.60795 | 3043 ft | 121 kts | 180° |
| 2026-05-05 17:03 | 52.94912 | 13.60787 | 3044 ft | 122 kts | 180° |
| 2026-05-05 17:03 | 52.94055 | 13.60778 | 3047 ft | 124 kts | 180° |
| 2026-05-05 17:03 | 52.93193 | 13.60769 | 3049 ft | 124 kts | 180° |
| 2026-05-05 17:03 | 52.92328 | 13.60759 | 3048 ft | 124 kts | 180° |
| 2026-05-05 17:04 | 52.91471 | 13.60752 | 3050 ft | 123 kts | 180° |
| 2026-05-05 17:04 | 52.90616 | 13.60750 | 3050 ft | 123 kts | 180° |
| 2026-05-05 17:04 | 52.89762 | 13.60745 | 3049 ft | 123 kts | 180° |
| 2026-05-05 17:04 | 52.88904 | 13.60738 | 3047 ft | 123 kts | 180° |
| 2026-05-05 17:05 | 52.88046 | 13.60730 | 3047 ft | 123 kts | 180° |
| 2026-05-05 17:05 | 52.87190 | 13.60722 | 3046 ft | 122 kts | 180° |
| 2026-05-05 17:05 | 52.86344 | 13.60716 | 3048 ft | 122 kts | 180° |
| 2026-05-05 17:05 | 52.85495 | 13.60708 | 3047 ft | 122 kts | 180° |
| 2026-05-05 17:06 | 52.84649 | 13.60699 | 3047 ft | 122 kts | 180° |
| 2026-05-05 17:06 | 52.83805 | 13.60694 | 3045 ft | 121 kts | 180° |
| 2026-05-05 17:06 | 52.82978 | 13.60684 | 3046 ft | 120 kts | 180° |
| 2026-05-05 17:06 | 52.82139 | 13.60679 | 3045 ft | 120 kts | 180° |
| 2026-05-05 17:07 | 52.81301 | 13.60671 | 3048 ft | 120 kts | 180° |
| 2026-05-05 17:07 | 52.80462 | 13.60666 | 3048 ft | 121 kts | 180° |
| 2026-05-05 17:07 | 52.79619 | 13.60661 | 3049 ft | 121 kts | 180° |
| 2026-05-05 17:07 | 52.78774 | 13.60657 | 3014 ft | 124 kts | 180° |
| 2026-05-05 17:08 | 52.77889 | 13.60651 | 2886 ft | 130 kts | 180° |
| 2026-05-05 17:08 | 52.76975 | 13.60635 | 2768 ft | 132 kts | 180° |
| 2026-05-05 17:08 | 52.76049 | 13.60614 | 2638 ft | 134 kts | 180° |
| 2026-05-05 17:08 | 52.75113 | 13.60586 | 2517 ft | 136 kts | 181° |
| 2026-05-05 17:09 | 52.74168 | 13.60558 | 2390 ft | 135 kts | 180° |
| 2026-05-05 17:09 | 52.73231 | 13.60516 | 2264 ft | 135 kts | 180° |
| 2026-05-05 17:09 | 52.72308 | 13.60466 | 2139 ft | 134 kts | 180° |
| 2026-05-05 17:09 | 52.71373 | 13.60408 | 2037 ft | 133 kts | 180° |
| 2026-05-05 17:10 | 52.70480 | 13.60338 | 2028 ft | 126 kts | 180° |
| 2026-05-05 17:10 | 52.69607 | 13.60265 | 2022 ft | 125 kts | 180° |
| 2026-05-05 17:10 | 52.68747 | 13.60171 | 2019 ft | 123 kts | 180° |
| 2026-05-05 17:10 | 52.67887 | 13.60081 | 2018 ft | 124 kts | 180° |
| 2026-05-05 17:11 | 52.67022 | 13.59987 | 2015 ft | 125 kts | 180° |
| 2026-05-05 17:11 | 52.66149 | 13.59899 | 2017 ft | 126 kts | 181° |
| 2026-05-05 17:11 | 52.65277 | 13.59827 | 2018 ft | 125 kts | 181° |
| 2026-05-05 17:11 | 52.64410 | 13.59772 | 2019 ft | 126 kts | 180° |
| 2026-05-05 17:12 | 52.63533 | 13.59719 | 2014 ft | 125 kts | 180° |
| 2026-05-05 17:12 | 52.62661 | 13.59657 | 2013 ft | 125 kts | 180° |
| 2026-05-05 17:12 | 52.61793 | 13.59587 | 2010 ft | 124 kts | 180° |
| 2026-05-05 17:12 | 52.60929 | 13.59517 | 2010 ft | 125 kts | 180° |
| 2026-05-05 17:13 | 52.60057 | 13.59430 | 2010 ft | 126 kts | 180° |
| 2026-05-05 17:13 | 52.59175 | 13.59337 | 2013 ft | 128 kts | 180° |
| 2026-05-05 17:13 | 52.58289 | 13.59242 | 2014 ft | 130 kts | 180° |
| 2026-05-05 17:13 | 52.57378 | 13.59148 | 2019 ft | 132 kts | 180° |
| 2026-05-05 17:14 | 52.56453 | 13.59039 | 2014 ft | 136 kts | 180° |
| 2026-05-05 17:14 | 52.55494 | 13.58913 | 2011 ft | 139 kts | 181° |
| 2026-05-05 17:14 | 52.54559 | 13.58835 | 2001 ft | 125 kts | 179° |
| 2026-05-05 17:14 | 52.53742 | 13.58745 | 1996 ft | 110 kts | 180° |
| 2026-05-05 17:15 | 52.52980 | 13.58646 | 1998 ft | 115 kts | 180° |
| 2026-05-05 17:15 | 52.52152 | 13.58548 | 1996 ft | 120 kts | 179° |
| 2026-05-05 17:15 | 52.51335 | 13.58440 | 1995 ft | 114 kts | 181° |
| 2026-05-05 17:15 | 52.50586 | 13.58353 | 1988 ft | 99 kts | 180° |
| 2026-05-05 17:16 | 52.49956 | 13.58254 | 1961 ft | 88 kts | 185° |
| 2026-05-05 17:16 | 52.49372 | 13.57813 | 1975 ft | 97 kts | 210° |
| 2026-05-05 17:16 | 52.48777 | 13.57180 | 2019 ft | 108 kts | 217° |
| 2026-05-05 17:16 | 52.48153 | 13.56382 | 2110 ft | 114 kts | 218° |
| 2026-05-05 17:17 | 52.47526 | 13.55522 | 2171 ft | 121 kts | 221° |
| 2026-05-05 17:17 | 52.46931 | 13.54600 | 2129 ft | 117 kts | 227° |
| 2026-05-05 17:17 | 52.46403 | 13.53637 | 2174 ft | 111 kts | 228° |
| 2026-05-05 17:17 | 52.45883 | 13.52641 | 2132 ft | 117 kts | 229° |
| 2026-05-05 17:18 | 52.45372 | 13.51618 | 2105 ft | 115 kts | 232° |
| 2026-05-05 17:18 | 52.44889 | 13.50631 | 2198 ft | 104 kts | 231° |
| 2026-05-05 17:18 | 52.44438 | 13.49700 | 2128 ft | 105 kts | 232° |
| 2026-05-05 17:18 | 52.43984 | 13.48728 | 1988 ft | 110 kts | 231° |
| 2026-05-05 17:19 | 52.43476 | 13.47823 | 1890 ft | 108 kts | 222° |
| 2026-05-05 17:19 | 52.42913 | 13.47013 | 1819 ft | 102 kts | 217° |
| 2026-05-05 17:19 | 52.42335 | 13.46406 | 1725 ft | 101 kts | 204° |
| 2026-05-05 17:19 | 52.41705 | 13.45885 | 1567 ft | 105 kts | 204° |
| 2026-05-05 17:20 | 52.41063 | 13.45376 | 1569 ft | 98 kts | 203° |
| 2026-05-05 17:20 | 52.40527 | 13.44778 | 1564 ft | 93 kts | 221° |
| 2026-05-05 17:20 | 52.40245 | 13.43841 | 1613 ft | 106 kts | 258° |
| 2026-05-05 17:20 | 52.40118 | 13.42579 | 1730 ft | 111 kts | 271° |
| 2026-05-05 17:21 | 52.40144 | 13.41315 | 1834 ft | 109 kts | 277° |
| 2026-05-05 17:21 | 52.40203 | 13.40034 | 1836 ft | 114 kts | 282° |
| 2026-05-05 17:21 | 52.40429 | 13.38833 | 1905 ft | 110 kts | 289° |
| 2026-05-05 17:22 | 52.41123 | 13.38231 | 2082 ft | 97 kts | 102° |
| 2026-05-05 17:22 | 52.40463 | 13.38372 | 1896 ft | 131 kts | 222° |
| 2026-05-05 17:22 | 52.39805 | 13.37781 | 1912 ft | 93 kts | 180° |
| 2026-05-05 17:22 | 52.39169 | 13.37868 | 1817 ft | 93 kts | 155° |
| 2026-05-05 17:23 | 52.38536 | 13.38244 | 1797 ft | 99 kts | 153° |
| 2026-05-05 17:23 | 52.37866 | 13.38616 | 1710 ft | 106 kts | 156° |
| 2026-05-05 17:23 | 52.37195 | 13.39000 | 1644 ft | 98 kts | 149° |
| 2026-05-05 17:23 | 52.36641 | 13.39537 | 1562 ft | 84 kts | 133° |
| 2026-05-05 17:24 | 52.36256 | 13.40221 | 1505 ft | 83 kts | 117° |
| 2026-05-05 17:24 | 52.35987 | 13.41087 | 1361 ft | 86 kts | 103° |
| 2026-05-05 17:24 | 52.35793 | 13.41969 | 1217 ft | 80 kts | 98° |
| 2026-05-05 17:24 | 52.35683 | 13.42844 | 1089 ft | 76 kts | 95° |
| 2026-05-05 17:25 | 52.35670 | 13.43632 | 980 ft | 61 kts | 75° |
| 2026-05-05 17:25 | 52.35761 | 13.44064 | 840 ft | 64 kts | 63° |
| 2026-05-05 17:25 | 52.35914 | 13.45001 | 727 ft | 64 kts | 65° |
| 2026-05-05 17:25 | 52.36076 | 13.45642 | 674 ft | 60 kts | 67° |
| 2026-05-05 17:26 | 52.36235 | 13.46308 | 506 ft | 72 kts | 66° |
| 2026-05-05 17:26 | 52.36415 | 13.47028 | 377 ft | 60 kts | 68° |
| 2026-05-05 17:26 | 52.36566 | 13.47666 | 332 ft | 60 kts | 68° |
| 2026-05-05 17:26 | 52.36717 | 13.48296 | 238 ft | 58 kts | 66° |
| 2026-05-05 17:27 | 52.36863 | 13.48901 | 165 ft | 57 kts | 68° |
| 2026-05-05 17:27 | 52.37009 | 13.49496 | 153 ft | 54 kts | 68° |
| 2026-05-05 17:27 | 52.37129 | 13.50011 | 153 ft | 46 kts | 69° |
| 2026-05-05 17:27 | 52.37237 | 13.50474 | 151 ft | 41 kts | 68° |
| 2026-05-05 17:28 | 52.37310 | 13.50890 | 153 ft | 33 kts | 87° |
| 2026-05-05 17:28 | 52.37291 | 13.51167 | 156 ft | 18 kts | 104° |
| 2026-05-05 17:28 | 52.37285 | 13.51208 | 157 ft | 0 kts | 97° |
| 2026-05-05 17:29 | 52.37284 | 13.51223 | 157 ft | 5 kts | 97° |
| 2026-05-05 17:29 | 52.37272 | 13.51354 | 156 ft | 18 kts | 98° |
| 2026-05-05 17:29 | 52.37266 | 13.51598 | 154 ft | 23 kts | 66° |
| 2026-05-05 17:30 | 52.37309 | 13.51773 | 154 ft | 14 kts | 67° |
| 2026-05-05 17:30 | 52.37350 | 13.51934 | 154 ft | 16 kts | 69° |
| 2026-05-05 17:30 | 52.37294 | 13.52070 | 154 ft | 19 kts | 158° |
| 2026-05-05 17:30 | 52.37205 | 13.52136 | 155 ft | 4 kts | 200° |
| 2026-05-05 17:31 | 52.37205 | 13.52105 | 155 ft | 0 kts | 331° |
| 2026-05-05 17:31 | 52.37206 | 13.52104 | 155 ft | 0 kts | 331° |